Tioga, WV (26691)

5:50 PM EDT on August 27, 2015 (GMT -0400)
Summersville | | Change Station
CLOSE
Current Station
Personal Weather Station
Location: Summersville, WV
Elevation: 1932 ft
Nearby Weather Stations

Elev 1932 ft 38.30 °N, 80.84 °W | Updated 38 seconds ago

Partly Cloudy
Partly Cloudy
80.1 °F
Feels Like 81 °F
N
1.6
Wind Variable Wind from North

Today
High -- | Low -- °F
--% Chance of Precip.
Yesterday
High -- | Low -- °F
Precip. -- in
6:47 AM 8:00 PM
Waxing Gibbous, 95% visible
Pressure 30.14 in
Visibility 10.0 miles
Clouds Clear
Heat Index 81 °F
Dew Point 57 °F
Humidity 46%
Rainfall 0.00 in
Snow Depth Not available.
UV 3 out of 12
Pollen 8.90 out of 12
Air Quality Not available.
Flu Activity Not available.
METAR KLWB 272135Z AUTO 00000KT 10SM CLR 24/10 A3014 RMK AO2 T02440102
Pressure 30.14 in
Visibility 10.0 miles
Clouds Clear
Heat Index 81 °F
Dew Point 57 °F
Humidity 46%
Rainfall 0.00 in
Snow Depth Not available.
UV 3 out of 12
Pollen 8.90 out of 12
Air Quality Not available.
Flu Activity Not available.
METAR KLWB 272135Z AUTO 00000KT 10SM CLR 24/10 A3014 RMK AO2 T02440102

10-Day Weather Forecast

×

Almanac

Astronomy

Aug. 27, 2015 Rise Set
Actual Time
Civil Twilight
Nautical Twilight
Astronomical Twilight
Moon
Length of Visible Light
Length of Day
Tomorrow will be .
, % of the Moon is Illuminated

Today's Extremes

State Highs State Lows

Community

WunderPhotos

Upload Photos

1,850,238 photos uploaded!

WunderBlogs® & News

Nearby

Air Quality

  Air Quality AQ Index Pollutant
Not available.

Snow Depth

Station Depth Elevation

Earthquake Activity

City Distance Mag. Time & Date
Minimum magnitude displayed is 2.5.

Coastal Water Temperatures

Place Temperature

Stations

Nearby Weather Stations

Station Location Temp. Windchill Dew Point Humidity Wind Precip. Elev Updated Type